Time;durP1;ratioP1;P1;durP2;ratioP2;P2;SDS_P1;SDS_P2;PMS_P1;PMS_P2;Temp;Humidity;BMP_temperature;BMP_pressure;BME280_temperature;BME280_humidity;BME280_pressure;Samples;Min_cycle;Max_cycle;Signal;HPM_P1;HPM_P2
2021/12/22 00:00:12;;;;;;;17.20;7.30;;;4.30;85.00;;;;;;5052386;28;20396;-73
2021/12/22 00:02:46;;;;;;;17.00;7.22;;;4.30;85.60;;;;;;5038338;28;20030;-73
2021/12/22 00:05:21;;;;;;;17.08;7.00;;;4.30;85.00;;;;;;5043560;28;20040;-73
2021/12/22 00:07:47;;;;;;;19.35;7.75;;;4.30;85.00;;;;;;5045644;28;20029;-73
2021/12/22 00:10:15;;;;;;;21.17;9.68;;;4.30;85.00;;;;;;5031929;28;20069;-73
2021/12/22 00:12:41;;;;;;;29.45;9.27;;;4.20;84.90;;;;;;5033035;28;20116;-73
2021/12/22 00:15:08;;;;;;;21.67;7.45;;;4.20;84.80;;;;;;5043523;28;20108;-73
2021/12/22 00:17:35;;;;;;;16.75;8.27;;;4.20;84.80;;;;;;5033190;28;20421;-74
2021/12/22 00:20:02;;;;;;;14.00;7.18;;;4.20;84.60;;;;;;5047501;28;20080;-73
2021/12/22 00:22:28;;;;;;;14.23;6.93;;;4.30;84.60;;;;;;5038971;28;20079;-73
2021/12/22 00:24:53;;;;;;;15.48;6.22;;;4.20;84.50;;;;;;5038874;28;20025;-73
2021/12/22 00:27:19;;;;;;;16.33;6.65;;;4.20;84.40;;;;;;5051930;28;20122;-73
2021/12/22 00:29:48;;;;;;;14.55;6.57;;;4.20;84.50;;;;;;5038869;28;20077;-73
2021/12/22 00:32:17;;;;;;;13.57;6.25;;;4.20;84.60;;;;;;5051455;28;20369;-73
2021/12/22 00:34:52;;;;;;;14.70;7.50;;;4.20;84.60;;;;;;5052179;28;20040;-73
2021/12/22 00:37:23;;;;;;;9.45;6.10;;;4.20;84.70;;;;;;5051121;28;20487;-73
2021/12/22 00:39:50;;;;;;;12.77;6.13;;;4.10;84.60;;;;;;5052209;28;20076;-73
2021/12/22 00:42:16;;;;;;;17.15;6.22;;;4.10;84.70;;;;;;5038634;28;20040;-73
2021/12/22 00:44:43;;;;;;;14.40;6.03;;;4.10;84.80;;;;;;5039903;28;20029;-73
2021/12/22 00:47:09;;;;;;;13.80;7.07;;;4.00;84.80;;;;;;5037906;28;20029;-73
2021/12/22 00:49:35;;;;;;;12.70;6.10;;;4.00;84.90;;;;;;5052191;28;20029;-73
2021/12/22 00:52:02;;;;;;;17.00;6.82;;;4.10;85.00;;;;;;5044845;28;20049;-73
2021/12/22 00:54:28;;;;;;;14.05;6.93;;;4.10;85.00;;;;;;5032325;28;20099;-73
2021/12/22 00:57:00;;;;;;;13.15;6.82;;;4.00;84.80;;;;;;5038801;28;20466;-73
2021/12/22 00:59:26;;;;;;;14.73;7.50;;;4.00;85.30;;;;;;5037919;28;20069;-73
2021/12/22 01:01:52;;;;;;;12.73;6.88;;;4.10;84.60;;;;;;5043668;28;20139;-74
2021/12/22 01:04:18;;;;;;;13.18;6.38;;;4.00;84.40;;;;;;5031624;28;20036;-73
2021/12/22 01:06:44;;;;;;;11.20;5.88;;;4.10;84.50;;;;;;5031304;28;20057;-73
2021/12/22 01:09:10;;;;;;;14.60;6.93;;;4.10;84.50;;;;;;5047147;28;20072;-73
2021/12/22 01:11:36;;;;;;;12.95;5.85;;;4.10;84.50;;;;;;5052045;28;20056;-73
2021/12/22 01:14:02;;;;;;;19.95;6.30;;;4.00;84.40;;;;;;5038561;28;20028;-73
2021/12/22 01:16:28;;;;;;;13.68;6.18;;;4.10;84.50;;;;;;5042124;28;20420;-73
2021/12/22 01:18:55;;;;;;;12.68;6.75;;;4.00;84.50;;;;;;5034278;28;20025;-73
2021/12/22 01:21:44;;;;;;;9.85;6.07;;;4.00;84.50;;;;;;5031171;28;20516;-73
2021/12/22 01:24:29;;;;;;;13.52;7.03;;;4.00;84.40;;;;;;5051557;28;20368;-73
2021/12/22 01:27:03;;;;;;;13.90;7.00;;;4.00;84.40;;;;;;5050755;28;20431;-73
2021/12/22 01:29:33;;;;;;;18.35;6.18;;;4.00;84.20;;;;;;5044511;28;20025;-74
2021/12/22 01:32:00;;;;;;;14.32;6.60;;;4.00;84.20;;;;;;5045500;28;20112;-73
2021/12/22 01:34:26;;;;;;;12.73;6.15;;;4.00;84.20;;;;;;5048652;28;20120;-73
2021/12/22 01:36:52;;;;;;;16.15;7.00;;;4.00;84.20;;;;;;5054692;28;20041;-74
2021/12/22 01:39:19;;;;;;;15.88;6.85;;;4.00;84.20;;;;;;5042316;28;20025;-73
2021/12/22 01:41:44;;;;;;;16.70;7.20;;;4.00;84.20;;;;;;5053259;28;20045;-74
2021/12/22 01:44:13;;;;;;;9.45;5.57;;;3.90;84.10;;;;;;5042626;28;20039;-73
2021/12/22 01:49:10;;;;;;;9.95;6.03;;;3.90;84.00;;;;;;5043046;28;20028;-73
2021/12/22 01:51:55;;;;;;;14.38;6.70;;;3.90;84.00;;;;;;5054468;28;20503;-73
2021/12/22 01:54:21;;;;;;;14.95;6.57;;;4.00;84.20;;;;;;5054910;28;20040;-73
2021/12/22 01:56:51;;;;;;;15.98;6.15;;;4.00;84.10;;;;;;5048535;28;20606;-73
2021/12/22 01:59:20;;;;;;;11.60;5.70;;;3.90;84.00;;;;;;5034596;28;20033;-73
2021/12/22 02:01:46;;;;;;;13.52;6.35;;;3.90;84.10;;;;;;5046851;28;20033;-73
2021/12/22 02:04:13;;;;;;;9.98;5.60;;;3.90;84.10;;;;;;5035462;28;20022;-73
2021/12/22 02:06:46;;;;;;;16.17;6.60;;;3.90;84.10;;;;;;5054456;28;20464;-73
2021/12/22 02:09:20;;;;;;;12.98;5.72;;;3.90;84.10;;;;;;5050939;28;20033;-73
2021/12/22 02:11:46;;;;;;;12.60;6.53;;;3.90;84.10;;;;;;5044995;28;20037;-73
2021/12/22 02:14:12;;;;;;;15.18;5.72;;;3.90;84.10;;;;;;5050032;28;20044;-73
2021/12/22 02:16:40;;;;;;;13.65;6.20;;;3.90;84.20;;;;;;5044652;28;20374;-73
2021/12/22 02:19:08;;;;;;;16.35;6.95;;;3.80;84.10;;;;;;5049230;28;20029;-73
2021/12/22 02:21:41;;;;;;;14.90;6.55;;;3.80;84.20;;;;;;5046530;28;20033;-73
2021/12/22 02:24:06;;;;;;;15.07;6.30;;;3.80;84.20;;;;;;5046751;28;20128;-73
2021/12/22 02:26:45;;;;;;;13.98;6.18;;;3.90;84.20;;;;;;5047692;28;20527;-73
2021/12/22 02:29:22;;;;;;;18.45;6.00;;;3.80;84.20;;;;;;5044918;28;20560;-73
2021/12/22 02:31:59;;;;;;;13.00;6.07;;;3.80;84.20;;;;;;5044510;28;20468;-73
2021/12/22 02:34:25;;;;;;;16.73;6.43;;;3.80;84.20;;;;;;5047938;28;20384;-73
2021/12/22 02:36:51;;;;;;;14.25;7.07;;;3.80;84.30;;;;;;5035145;28;20037;-73
2021/12/22 02:39:17;;;;;;;11.45;6.63;;;3.80;84.30;;;;;;5033677;28;20029;-73
2021/12/22 02:41:43;;;;;;;13.27;6.40;;;3.80;84.30;;;;;;5047709;28;20039;-73
2021/12/22 02:44:10;;;;;;;12.50;6.32;;;3.80;84.30;;;;;;5053223;28;20352;-73
2021/12/22 02:46:38;;;;;;;16.40;7.20;;;3.80;84.20;;;;;;5044317;28;20072;-73
2021/12/22 02:49:06;;;;;;;12.40;6.38;;;3.70;84.10;;;;;;5052080;28;20036;-73
2021/12/22 02:51:32;;;;;;;12.38;5.85;;;3.70;84.00;;;;;;5048597;28;20037;-73
2021/12/22 02:56:54;;;;;;;17.35;7.05;;;3.70;84.00;;;;;;5053523;28;20029;-74
2021/12/22 03:04:57;;;;;;;8.45;5.72;;;3.70;84.10;;;;;;5039488;28;20464;-75
2021/12/22 03:07:27;;;;;;;11.27;5.85;;;3.70;84.20;;;;;;5050298;28;20037;-73
2021/12/22 03:10:05;;;;;;;11.35;6.32;;;3.60;84.20;;;;;;5033172;28;20040;-73
2021/12/22 03:12:34;;;;;;;10.98;6.38;;;3.60;84.20;;;;;;5035423;28;20029;-73
2021/12/22 03:15:04;;;;;;;13.18;6.03;;;3.60;84.30;;;;;;5032769;28;20087;-73
2021/12/22 03:17:30;;;;;;;10.57;5.10;;;3.60;84.40;;;;;;5032531;28;20116;-73
2021/12/22 03:19:55;;;;;;;12.68;6.38;;;3.50;84.30;;;;;;5032996;28;20124;-73
2021/12/22 03:22:22;;;;;;;13.85;5.80;;;3.60;84.40;;;;;;5032291;28;20029;-73
2021/12/22 03:24:50;;;;;;;17.75;5.95;;;3.60;84.40;;;;;;5032509;28;20429;-73
2021/12/22 03:27:16;;;;;;;14.40;6.40;;;3.60;84.40;;;;;;5034572;28;20022;-76
2021/12/22 03:29:41;;;;;;;12.10;5.47;;;3.50;84.30;;;;;;5035157;28;20147;-75
2021/12/22 03:32:09;;;;;;;16.48;6.70;;;3.50;84.30;;;;;;5032448;28;20036;-74
2021/12/22 03:34:35;;;;;;;13.18;5.70;;;3.50;84.30;;;;;;5034342;28;20067;-75
2021/12/22 03:37:01;;;;;;;11.30;5.07;;;3.50;84.30;;;;;;5032174;28;20093;-74
2021/12/22 03:39:28;;;;;;;10.68;5.07;;;3.50;84.40;;;;;;5032458;28;20469;-74
2021/12/22 03:41:54;;;;;;;13.13;5.30;;;3.50;84.40;;;;;;5034375;28;20413;-74
2021/12/22 03:44:20;;;;;;;9.85;5.60;;;3.50;84.40;;;;;;5032220;28;20026;-74
2021/12/22 03:46:46;;;;;;;10.25;6.13;;;3.50;84.40;;;;;;5032338;28;20025;-73
2021/12/22 03:49:14;;;;;;;13.85;5.20;;;3.50;84.40;;;;;;5031232;28;20041;-73
2021/12/22 03:51:40;;;;;;;15.70;6.15;;;3.50;85.00;;;;;;5031911;28;20060;-72
2021/12/22 03:54:13;;;;;;;13.73;6.53;;;3.40;84.30;;;;;;5051068;28;20037;-72
2021/12/22 03:56:39;;;;;;;17.07;6.30;;;3.40;84.40;;;;;;5052240;28;20067;-72
2021/12/22 03:59:06;;;;;;;12.57;6.10;;;3.40;84.40;;;;;;5051337;28;20041;-73
2021/12/22 04:01:33;;;;;;;17.05;6.15;;;3.40;84.40;;;;;;5033777;28;20040;-73
2021/12/22 04:04:03;;;;;;;15.48;6.25;;;3.40;84.40;;;;;;5034660;28;20377;-73
2021/12/22 04:06:28;;;;;;;14.60;6.57;;;3.40;84.50;;;;;;5037244;28;20025;-73
2021/12/22 04:08:54;;;;;;;14.48;6.55;;;3.40;84.50;;;;;;5031046;28;20021;-72
2021/12/22 04:11:20;;;;;;;9.75;5.82;;;3.40;84.50;;;;;;5031992;28;20025;-72
2021/12/22 04:13:45;;;;;;;11.73;5.90;;;3.30;84.40;;;;;;5037081;28;20049;-72
2021/12/22 04:16:11;;;;;;;11.25;5.97;;;3.40;84.50;;;;;;5031330;28;20065;-73
2021/12/22 04:18:37;;;;;;;13.05;6.43;;;3.30;84.40;;;;;;5032015;28;20033;-73
2021/12/22 04:21:02;;;;;;;12.35;6.20;;;3.30;84.40;;;;;;5034440;28;20040;-72
2021/12/22 04:23:28;;;;;;;17.23;6.72;;;3.30;84.50;;;;;;5031283;28;20017;-73
2021/12/22 04:25:54;;;;;;;12.43;6.57;;;3.30;84.40;;;;;;5034167;28;20400;-73
2021/12/22 04:28:19;;;;;;;11.73;5.70;;;3.30;84.40;;;;;;5037359;28;20041;-73
2021/12/22 04:30:49;;;;;;;13.07;6.40;;;3.30;84.40;;;;;;5031069;28;20037;-73
2021/12/22 04:33:16;;;;;;;14.77;6.32;;;3.20;84.40;;;;;;5031468;28;20045;-73
2021/12/22 04:35:42;;;;;;;14.05;6.68;;;3.20;84.30;;;;;;5032240;28;20493;-72
2021/12/22 04:38:08;;;;;;;17.35;6.28;;;3.30;84.40;;;;;;5045464;28;20159;-73
2021/12/22 04:40:34;;;;;;;14.98;6.20;;;3.20;84.40;;;;;;5043693;28;20132;-73
2021/12/22 04:42:59;;;;;;;14.93;5.88;;;3.20;84.40;;;;;;5045364;28;20037;-72
2021/12/22 04:45:25;;;;;;;15.13;6.00;;;3.30;84.40;;;;;;5040390;28;20036;-73
2021/12/22 04:47:51;;;;;;;16.85;5.88;;;3.20;84.40;;;;;;5049642;28;20036;-73
2021/12/22 04:50:18;;;;;;;19.23;6.13;;;3.20;84.40;;;;;;5032130;28;20048;-73
2021/12/22 04:55:17;;;;;;;9.35;4.70;;;3.20;84.50;;;;;;5037065;28;20052;-73
2021/12/22 04:57:43;;;;;;;12.45;6.07;;;3.20;84.50;;;;;;5042537;28;20037;-73
2021/12/22 05:00:11;;;;;;;15.85;6.57;;;3.10;84.50;;;;;;5031639;28;20515;-73
2021/12/22 05:02:37;;;;;;;10.23;5.47;;;3.10;84.60;;;;;;5044417;28;20029;-73
2021/12/22 05:05:03;;;;;;;12.13;6.30;;;3.10;84.60;;;;;;5051645;28;20437;-73
2021/12/22 05:07:29;;;;;;;12.68;5.90;;;3.10;84.60;;;;;;5036714;28;20030;-72
2021/12/22 05:09:55;;;;;;;12.75;6.30;;;3.00;84.60;;;;;;5039321;28;20047;-72
2021/12/22 05:12:20;;;;;;;15.68;7.07;;;3.10;84.70;;;;;;5054947;28;20029;-72
2021/12/22 05:14:49;;;;;;;16.50;6.72;;;3.00;84.60;;;;;;5051193;28;20026;-73
2021/12/22 05:17:28;;;;;;;13.65;6.75;;;3.00;84.60;;;;;;5035519;28;20037;-72
2021/12/22 05:19:53;;;;;;;7.82;3.35;;;3.00;84.70;;;;;;5041867;28;20041;-72
2021/12/22 05:22:19;;;;;;;15.40;6.90;;;2.90;84.60;;;;;;5041929;28;20029;-73
2021/12/22 05:24:45;;;;;;;13.35;5.80;;;2.90;84.70;;;;;;5042728;28;20041;-73
2021/12/22 05:27:13;;;;;;;13.50;5.80;;;2.90;84.70;;;;;;5041134;28;20030;-72
2021/12/22 05:29:39;;;;;;;12.80;5.85;;;2.90;84.70;;;;;;5055122;28;20400;-72
2021/12/22 05:32:06;;;;;;;7.90;4.43;;;2.90;84.70;;;;;;5055107;28;20037;-73
2021/12/22 05:34:32;;;;;;;12.98;6.25;;;2.90;84.80;;;;;;5054648;28;20559;-72
2021/12/22 05:36:57;;;;;;;16.40;6.20;;;2.90;84.80;;;;;;5041580;28;20033;-73
2021/12/22 05:39:23;;;;;;;10.02;4.45;;;2.80;84.80;;;;;;5055051;28;20060;-72
2021/12/22 05:41:49;;;;;;;12.13;6.05;;;2.80;84.80;;;;;;5040862;28;20061;-72
2021/12/22 05:44:14;;;;;;;10.23;5.32;;;2.80;84.80;;;;;;5045591;28;20033;-73
2021/12/22 05:46:40;;;;;;;12.65;6.40;;;2.80;84.80;;;;;;5050896;28;20035;-72
2021/12/22 05:49:06;;;;;;;17.42;6.70;;;2.70;84.90;;;;;;5054340;28;20035;-73
2021/12/22 05:51:34;;;;;;;10.93;5.47;;;2.70;84.90;;;;;;5041279;28;20059;-72
2021/12/22 05:53:59;;;;;;;7.72;4.80;;;2.70;85.00;;;;;;5053793;28;20048;-72
2021/12/22 05:56:30;;;;;;;15.52;6.35;;;2.70;85.00;;;;;;5043600;28;20021;-72
2021/12/22 05:58:56;;;;;;;3.63;1.92;;;2.70;85.00;;;;;;5047708;28;20393;-73
2021/12/22 06:01:22;;;;;;;12.90;6.10;;;2.60;85.00;;;;;;5034124;28;20048;-72
2021/12/22 06:03:48;;;;;;;15.13;5.57;;;2.60;84.90;;;;;;5047942;28;20368;-73
2021/12/22 06:06:14;;;;;;;13.60;5.07;;;2.60;84.90;;;;;;5034771;28;20362;-72
2021/12/22 06:08:39;;;;;;;11.02;4.40;;;2.60;85.00;;;;;;5039578;28;20052;-72
2021/12/22 06:11:05;;;;;;;10.63;5.72;;;2.60;85.10;;;;;;5041163;28;20037;-73
2021/12/22 06:13:30;;;;;;;7.97;4.53;;;2.60;85.00;;;;;;5053524;28;20029;-72
2021/12/22 06:15:56;;;;;;;16.00;6.65;;;2.60;85.10;;;;;;5053695;28;20032;-73
2021/12/22 06:18:22;;;;;;;13.07;4.75;;;2.60;85.00;;;;;;5047782;28;20105;-72
2021/12/22 06:20:47;;;;;;;11.63;4.43;;;2.60;85.00;;;;;;5034185;28;20455;-72
2021/12/22 06:23:13;;;;;;;7.68;3.65;;;2.60;85.00;;;;;;5041604;28;20025;-72
2021/12/22 06:25:39;;;;;;;14.15;6.20;;;2.60;84.90;;;;;;5053987;28;20053;-73
2021/12/22 06:28:06;;;;;;;10.65;5.28;;;2.60;85.00;;;;;;5054037;28;20048;-73
2021/12/22 06:30:32;;;;;;;13.10;5.75;;;2.50;84.90;;;;;;5053876;28;20125;-73
2021/12/22 06:32:58;;;;;;;1.30;1.23;;;2.50;85.00;;;;;;5054401;28;20484;-73
2021/12/22 06:35:23;;;;;;;9.15;4.28;;;2.40;85.10;;;;;;5053974;28;20070;-73
2021/12/22 06:37:51;;;;;;;17.38;5.88;;;2.40;85.40;;;;;;5044340;28;20025;-73
2021/12/22 06:40:17;;;;;;;9.93;4.95;;;2.30;85.50;;;;;;5037910;28;20041;-73
2021/12/22 06:42:42;;;;;;;13.57;6.50;;;2.30;85.70;;;;;;5044075;28;20028;-72
2021/12/22 06:45:10;;;;;;;11.68;5.35;;;2.30;85.80;;;;;;5049761;28;20029;-73
2021/12/22 06:47:36;;;;;;;9.50;5.78;;;2.30;85.90;;;;;;5043473;28;20029;-73
2021/12/22 06:50:04;;;;;;;11.05;5.10;;;2.30;85.90;;;;;;5037134;28;20079;-73
2021/12/22 06:52:29;;;;;;;15.57;7.68;;;2.20;85.90;;;;;;5053625;28;20041;-72
2021/12/22 06:54:55;;;;;;;10.10;5.25;;;2.30;85.90;;;;;;5053433;28;20473;-73
2021/12/22 06:57:21;;;;;;;12.40;6.00;;;2.30;85.80;;;;;;5052797;28;20789;-73
2021/12/22 06:59:47;;;;;;;11.57;5.82;;;2.30;85.80;;;;;;5053667;28;20041;-72
2021/12/22 07:02:13;;;;;;;23.80;7.00;;;2.30;85.80;;;;;;5053244;28;20108;-73
2021/12/22 07:04:39;;;;;;;9.40;6.03;;;2.30;85.80;;;;;;5039278;28;20103;-73
2021/12/22 07:07:05;;;;;;;13.85;7.00;;;2.20;85.70;;;;;;5040333;28;20021;-73
2021/12/22 07:09:30;;;;;;;18.35;6.55;;;2.20;85.80;;;;;;5040763;28;20037;-73
2021/12/22 07:11:56;;;;;;;7.20;3.63;;;2.20;85.70;;;;;;5045385;28;20022;-73
2021/12/22 07:14:22;;;;;;;10.00;3.95;;;2.20;85.70;;;;;;5046465;28;20033;-73
2021/12/22 07:16:48;;;;;;;7.68;4.55;;;2.20;85.70;;;;;;5033514;28;20095;-73
2021/12/22 07:19:14;;;;;;;15.68;6.35;;;2.30;85.70;;;;;;5033656;28;20029;-73
2021/12/22 07:21:40;;;;;;;14.25;6.80;;;2.20;85.60;;;;;;5045772;28;20448;-72
2021/12/22 07:24:06;;;;;;;10.63;5.32;;;2.20;85.60;;;;;;5032913;28;20037;-72
2021/12/22 07:26:32;;;;;;;7.03;3.72;;;2.20;85.60;;;;;;5041204;28;20048;-72
2021/12/22 07:28:58;;;;;;;10.02;5.20;;;2.20;85.70;;;;;;5039558;28;20040;-73
2021/12/22 07:31:25;;;;;;;28.00;8.75;;;2.20;85.70;;;;;;5044138;28;20033;-72
2021/12/22 07:34:42;;;;;;;7.78;4.50;;;2.20;85.70;;;;;;5048327;28;20025;-73
2021/12/22 07:37:30;;;;;;;7.88;3.83;;;2.20;85.70;;;;;;5030527;28;20033;-73
2021/12/22 07:39:56;;;;;;;6.90;2.70;;;2.20;85.60;;;;;;5046930;28;20055;-73
2021/12/22 07:42:22;;;;;;;18.77;7.20;;;2.20;85.60;;;;;;5052603;28;20040;-73
2021/12/22 07:44:48;;;;;;;12.43;6.07;;;2.20;85.60;;;;;;5052834;28;20072;-72
2021/12/22 07:47:13;;;;;;;15.35;7.43;;;2.10;85.60;;;;;;5044886;28;20033;-73
2021/12/22 07:49:39;;;;;;;16.63;7.15;;;2.10;85.60;;;;;;5033710;28;20033;-73
2021/12/22 07:52:05;;;;;;;13.55;6.82;;;2.10;85.70;;;;;;5052468;28;20451;-73
2021/12/22 07:54:31;;;;;;;19.40;7.53;;;2.10;85.70;;;;;;5051823;28;20090;-73
2021/12/22 07:56:57;;;;;;;19.67;7.72;;;2.10;85.60;;;;;;5052438;28;20025;-72
2021/12/22 07:59:22;;;;;;;16.92;6.20;;;2.20;85.60;;;;;;5043992;28;20064;-72
2021/12/22 08:01:48;;;;;;;8.77;5.03;;;2.20;85.60;;;;;;5044988;28;20112;-73
2021/12/22 08:04:17;;;;;;;4.68;3.58;;;2.20;85.50;;;;;;5041232;28;20402;-66
2021/12/22 08:06:42;;;;;;;12.52;4.10;;;2.20;85.50;;;;;;5045592;28;20022;-71
2021/12/22 08:09:08;;;;;;;4.85;3.30;;;2.20;85.50;;;;;;5032064;28;20472;-73
2021/12/22 08:11:34;;;;;;;13.52;6.35;;;2.10;85.40;;;;;;5038024;28;20017;-71
2021/12/22 08:13:59;;;;;;;20.13;7.75;;;2.10;85.40;;;;;;5037504;28;20029;-72
2021/12/22 08:16:26;;;;;;;21.52;8.90;;;2.10;85.40;;;;;;5039516;28;20071;-72
2021/12/22 08:18:51;;;;;;;18.75;7.47;;;2.00;85.50;;;;;;5041813;28;20064;-72
2021/12/22 08:21:17;;;;;;;18.73;8.95;;;2.00;85.50;;;;;;5044130;28;20052;-71
2021/12/22 08:23:43;;;;;;;18.33;7.75;;;2.00;85.60;;;;;;5041634;28;20032;-74
2021/12/22 08:26:08;;;;;;;18.15;7.97;;;2.00;85.60;;;;;;5031110;28;20033;-71
2021/12/22 08:28:34;;;;;;;23.65;9.07;;;2.00;85.60;;;;;;5034751;28;20021;-72
2021/12/22 08:31:00;;;;;;;14.73;7.50;;;2.00;85.60;;;;;;5043197;28;20076;-72
2021/12/22 08:33:29;;;;;;;9.48;5.35;;;2.10;85.70;;;;;;5042554;28;20468;-72
2021/12/22 08:38:51;;;;;;;17.15;6.90;;;2.10;85.60;;;;;;5041734;28;20143;-72
2021/12/22 08:41:39;;;;;;;18.33;6.00;;;2.20;85.60;;;;;;5035788;28;20534;-71
2021/12/22 08:44:08;;;;;;;14.25;6.82;;;2.20;85.60;;;;;;5033847;28;20030;-71
2021/12/22 08:46:36;;;;;;;14.40;6.38;;;2.20;85.40;;;;;;5037469;28;20033;-72
2021/12/22 08:49:04;;;;;;;19.83;7.15;;;2.20;85.40;;;;;;5035972;28;20029;-72
2021/12/22 08:51:30;;;;;;;22.05;7.88;;;2.20;85.50;;;;;;5033356;28;20455;-71
2021/12/22 08:53:56;;;;;;;21.10;7.28;;;2.10;85.40;;;;;;5039583;28;20037;-71
2021/12/22 08:56:22;;;;;;;19.80;8.05;;;2.20;85.50;;;;;;5048488;28;20144;-71
2021/12/22 08:58:49;;;;;;;16.15;5.68;;;2.10;85.60;;;;;;5041221;28;20036;-71
2021/12/22 09:01:15;;;;;;;15.80;7.43;;;2.20;85.50;;;;;;5034185;28;20494;-71
2021/12/22 09:03:40;;;;;;;7.20;3.67;;;2.20;85.50;;;;;;5037353;28;20025;-72
2021/12/22 09:06:06;;;;;;;15.95;7.68;;;2.10;85.40;;;;;;5037502;28;20029;-71
2021/12/22 09:08:32;;;;;;;17.35;7.93;;;2.20;85.40;;;;;;5037920;28;20116;-72
2021/12/22 09:10:58;;;;;;;10.95;5.13;;;2.10;85.40;;;;;;5038371;28;20092;-72
2021/12/22 09:13:23;;;;;;;5.28;2.85;;;2.10;85.50;;;;;;5034546;28;20022;-72
2021/12/22 09:15:50;;;;;;;1.98;1.85;;;2.10;85.50;;;;;;5034082;28;20439;-72
2021/12/22 09:18:16;;;;;;;21.40;4.20;;;2.10;86.20;;;;;;5040500;28;20468;-72
2021/12/22 09:20:43;;;;;;;9.02;4.45;;;2.00;85.60;;;;;;5041969;28;20044;-70
2021/12/22 09:23:08;;;;;;;4.65;3.42;;;2.00;85.80;;;;;;5044564;28;20025;-70
2021/12/22 09:25:34;;;;;;;9.38;4.28;;;2.00;86.00;;;;;;5047738;28;20150;-71
2021/12/22 09:28:01;;;;;;;24.60;7.90;;;2.00;86.10;;;;;;5049904;28;20111;-71
2021/12/22 09:30:35;;;;;;;19.17;6.82;;;2.00;86.20;;;;;;5048449;28;20033;-70
2021/12/22 09:33:03;;;;;;;19.25;6.40;;;2.00;86.40;;;;;;5045487;28;20035;-70
2021/12/22 09:35:29;;;;;;;14.88;7.20;;;2.00;86.30;;;;;;5048823;28;20114;-70
2021/12/22 09:37:54;;;;;;;18.40;8.48;;;2.00;86.30;;;;;;5048608;28;20049;-72
2021/12/22 09:40:20;;;;;;;17.52;7.25;;;2.00;86.30;;;;;;5049757;28;20040;-74
2021/12/22 09:42:45;;;;;;;10.48;6.03;;;2.10;86.30;;;;;;5053065;28;20021;-75
2021/12/22 09:45:11;;;;;;;16.88;7.65;;;2.00;86.20;;;;;;5053009;28;20037;-73
2021/12/22 09:47:58;;;;;;;10.98;5.95;;;2.10;86.20;;;;;;5051397;28;20029;-72
2021/12/22 09:50:38;;;;;;;12.45;6.88;;;2.10;86.20;;;;;;5050026;28;20079;-71
2021/12/22 09:53:03;;;;;;;18.90;7.80;;;2.10;86.20;;;;;;5048576;28;20057;-71
2021/12/22 09:55:33;;;;;;;11.30;5.38;;;2.10;86.20;;;;;;5045352;28;20365;-71
2021/12/22 09:57:58;;;;;;;15.90;7.15;;;2.20;86.20;;;;;;5043578;28;20024;-73
2021/12/22 10:00:24;;;;;;;15.02;6.95;;;2.20;86.10;;;;;;5048679;28;20041;-72
2021/12/22 10:02:49;;;;;;;4.95;3.10;;;2.20;86.10;;;;;;5041837;28;20021;-71
2021/12/22 10:05:15;;;;;;;16.17;6.22;;;2.20;86.10;;;;;;5035313;28;20071;-71
2021/12/22 10:07:43;;;;;;;10.60;5.60;;;2.20;86.20;;;;;;5039245;28;20065;-72
2021/12/22 10:10:13;;;;;;;3.47;2.30;;;2.20;86.40;;;;;;5040710;28;20029;-71
2021/12/22 10:12:39;;;;;;;10.98;5.28;;;2.10;86.50;;;;;;5040602;28;20037;-71
2021/12/22 10:15:07;;;;;;;12.32;4.32;;;2.10;86.70;;;;;;5041643;28;20040;-71
2021/12/22 10:17:40;;;;;;;3.45;2.97;;;2.10;86.80;;;;;;5049875;28;20104;-71
2021/12/22 10:20:10;;;;;;;10.88;2.92;;;2.10;86.90;;;;;;5049624;28;20040;-71
2021/12/22 10:22:39;;;;;;;14.23;5.38;;;2.10;87.10;;;;;;5039531;28;20036;-75
2021/12/22 10:25:10;;;;;;;11.02;4.40;;;2.10;87.20;;;;;;5049547;28;20032;-70
2021/12/22 10:27:37;;;;;;;7.07;4.28;;;2.10;87.30;;;;;;5049735;28;20448;-71
2021/12/22 10:30:27;;;;;;;6.05;3.03;;;2.10;87.30;;;;;;5048110;28;20028;-71
2021/12/22 10:33:08;;;;;;;2.13;1.77;;;2.20;87.40;;;;;;5049150;28;20365;-71
2021/12/22 10:35:36;;;;;;;5.97;3.55;;;2.20;87.40;;;;;;5035432;28;20041;-70
2021/12/22 10:38:02;;;;;;;7.43;4.43;;;2.20;87.40;;;;;;5033520;28;20122;-70
2021/12/22 10:40:34;;;;;;;7.10;3.13;;;2.20;87.50;;;;;;5051336;28;20467;-71
2021/12/22 10:43:02;;;;;;;17.10;5.85;;;2.20;87.60;;;;;;5040255;28;20361;-71
2021/12/22 10:45:31;;;;;;;12.98;5.85;;;2.20;87.60;;;;;;5042148;28;20028;-71
2021/12/22 10:50:43;;;;;;;13.18;5.15;;;2.40;87.90;;;;;;5051390;28;20040;-72
2021/12/22 10:53:13;;;;;;;11.88;4.07;;;2.40;87.90;;;;;;5036217;28;20049;-72
2021/12/22 10:55:44;;;;;;;15.23;6.07;;;2.40;87.80;;;;;;5035244;28;20108;-70
2021/12/22 10:58:29;;;;;;;19.95;7.80;;;2.50;87.80;;;;;;5034958;28;20032;-72
2021/12/22 11:01:17;;;;;;;5.97;3.08;;;2.50;87.80;;;;;;5034889;28;20037;-72
2021/12/22 11:03:54;;;;;;;9.65;3.67;;;2.50;87.80;;;;;;5036199;28;20029;-71
2021/12/22 11:06:24;;;;;;;18.27;6.57;;;2.60;87.80;;;;;;5032979;28;20166;-70
2021/12/22 11:09:15;;;;;;;20.25;8.65;;;2.60;87.80;;;;;;5032756;28;20029;-71
2021/12/22 11:11:44;;;;;;;19.17;7.22;;;2.60;87.80;;;;;;5032766;28;20033;-71
2021/12/22 11:14:19;;;;;;;6.32;3.05;;;2.70;87.90;;;;;;5033347;28;20036;-72
2021/12/22 11:17:03;;;;;;;16.58;7.32;;;2.70;87.80;;;;;;5037353;28;20550;-72
2021/12/22 11:19:52;;;;;;;16.52;5.80;;;2.70;87.90;;;;;;5052496;28;20040;-72
2021/12/22 11:22:23;;;;;;;13.73;5.13;;;2.70;87.90;;;;;;5037527;28;20041;-71
2021/12/22 11:24:52;;;;;;;7.93;4.13;;;2.80;88.00;;;;;;5043489;28;20041;-71
2021/12/22 11:27:25;;;;;;;16.10;7.13;;;2.80;88.00;;;;;;5051236;28;20033;-72
2021/12/22 11:29:57;;;;;;;15.38;6.43;;;2.80;88.00;;;;;;5045794;28;20063;-72
2021/12/22 11:32:24;;;;;;;17.95;7.45;;;2.90;88.00;;;;;;5047561;28;20070;-71
2021/12/22 11:34:56;;;;;;;11.38;5.15;;;2.90;87.90;;;;;;5051307;28;20086;-72
2021/12/22 11:37:22;;;;;;;12.52;6.03;;;3.00;87.90;;;;;;5048105;28;20041;-72
2021/12/22 11:39:49;;;;;;;19.42;7.85;;;3.00;87.90;;;;;;5045988;28;20123;-72
2021/12/22 11:42:15;;;;;;;23.17;7.30;;;3.10;87.80;;;;;;5044145;28;20047;-71
2021/12/22 11:44:47;;;;;;;20.15;7.35;;;3.10;87.80;;;;;;5047347;28;20029;-72
2021/12/22 11:47:15;;;;;;;15.07;6.75;;;3.10;87.80;;;;;;5046446;28;20484;-72
2021/12/22 11:49:59;;;;;;;18.77;7.15;;;3.20;87.80;;;;;;5048551;28;20086;-72
2021/12/22 11:52:28;;;;;;;10.32;5.90;;;3.30;87.80;;;;;;5044823;28;20053;-72
2021/12/22 11:55:08;;;;;;;5.55;3.45;;;3.30;87.70;;;;;;5047929;28;20025;-72
2021/12/22 11:57:34;;;;;;;6.03;3.92;;;3.40;87.70;;;;;;5048434;28;20103;-72
2021/12/22 12:00:30;;;;;;;10.60;4.95;;;3.40;87.40;;;;;;5050149;28;20033;-72
2021/12/22 12:02:58;;;;;;;21.40;4.60;;;3.40;87.60;;;;;;5049260;28;20041;-70
2021/12/22 12:05:29;;;;;;;9.15;4.93;;;3.40;87.70;;;;;;5038700;28;20037;-70
2021/12/22 12:08:02;;;;;;;9.85;5.38;;;3.40;87.70;;;;;;5046523;28;20035;-72
2021/12/22 12:10:40;;;;;;;12.00;6.32;;;3.40;87.80;;;;;;5049872;28;20032;-71
2021/12/22 12:13:20;;;;;;;9.27;3.92;;;3.50;87.90;;;;;;5050177;28;20025;-73
2021/12/22 12:22:13;;;;;;;12.55;3.55;;;3.60;88.00;;;;;;5037304;28;20068;-72
2021/12/22 12:24:54;;;;;;;6.47;3.92;;;3.50;88.10;;;;;;5036511;28;20107;-71
2021/12/22 12:27:36;;;;;;;13.73;6.20;;;3.50;88.30;;;;;;5034709;28;20029;-72
2021/12/22 12:30:14;;;;;;;12.77;6.30;;;3.50;88.40;;;;;;5038711;28;20048;-71
2021/12/22 12:32:40;;;;;;;17.13;6.13;;;3.50;88.30;;;;;;5035534;28;20087;-71
2021/12/22 12:35:18;;;;;;;6.18;3.78;;;3.60;88.20;;;;;;5038926;28;20441;-71
2021/12/22 12:38:06;;;;;;;10.00;5.53;;;3.60;88.30;;;;;;5040142;28;20036;-71
2021/12/22 12:41:11;;;;;;;11.93;5.90;;;3.70;88.20;;;;;;5043272;28;20047;-71
2021/12/22 12:43:48;;;;;;;11.98;4.47;;;3.70;88.00;;;;;;5031016;28;20112;-73
2021/12/22 12:48:53;;;;;;;14.55;7.00;;;3.80;87.90;;;;;;5029057;28;20102;-73
2021/12/22 12:51:25;;;;;;;13.82;5.78;;;3.80;87.80;;;;;;5030384;28;20037;-73
2021/12/22 12:53:54;;;;;;;13.85;6.50;;;3.90;88.00;;;;;;5031497;28;20045;-73
2021/12/22 12:56:23;;;;;;;11.13;5.20;;;3.90;87.80;;;;;;5044809;28;20029;-76
2021/12/22 12:58:59;;;;;;;16.85;6.75;;;3.90;87.80;;;;;;5056919;28;20464;-72
2021/12/22 13:01:47;;;;;;;16.00;6.82;;;3.90;87.70;;;;;;5051619;28;20044;-70
2021/12/22 13:04:31;;;;;;;14.57;6.63;;;4.00;87.80;;;;;;5032897;28;20033;-71
2021/12/22 13:07:16;;;;;;;12.82;6.25;;;4.00;87.80;;;;;;5044799;28;20032;-70
2021/12/22 13:09:46;;;;;;;13.35;6.10;;;4.00;87.90;;;;;;5047103;28;20500;-71
2021/12/22 13:12:20;;;;;;;7.32;4.40;;;4.00;87.80;;;;;;5040010;28;20034;-71
2021/12/22 13:17:40;;;;;;;12.25;5.88;;;4.00;88.10;;;;;;5048455;28;20055;-70
2021/12/22 13:20:11;;;;;;;16.95;7.20;;;4.10;88.10;;;;;;5033904;28;20041;-71
2021/12/22 13:22:39;;;;;;;20.15;7.68;;;4.10;88.10;;;;;;5041584;28;20083;-71
2021/12/22 13:25:17;;;;;;;12.18;5.90;;;4.10;88.00;;;;;;5040651;28;20151;-70
2021/12/22 13:27:55;;;;;;;18.80;6.28;;;4.20;88.00;;;;;;5044697;28;20044;-75